Time;durP1;ratioP1;P1;durP2;ratioP2;P2;SDS_P1;SDS_P2;PMS_P1;PMS_P2;Temp;Humidity;BMP_temperature;BMP_pressure;BME280_temperature;BME280_humidity;BME280_pressure;Samples;Min_cycle;Max_cycle;Signal;HPM_P1;HPM_P2
2024/03/26 00:00:12;;;;;;;9.03;3.87;;;7.30;99.00;;;;;;800384;179;26583;-79
2024/03/26 00:02:42;;;;;;;6.23;2.60;;;7.20;98.30;;;;;;798486;180;26473;-79
2024/03/26 00:05:16;;;;;;;5.93;2.70;;;7.30;98.90;;;;;;798292;179;26454;-80
2024/03/26 00:07:55;;;;;;;6.43;2.97;;;7.20;98.40;;;;;;799024;179;26461;-80
2024/03/26 00:10:29;;;;;;;7.93;2.77;;;7.20;99.90;;;;;;797803;180;26456;-80
2024/03/26 00:13:03;;;;;;;7.00;2.87;;;7.20;98.10;;;;;;797524;177;26451;-80
2024/03/26 00:15:34;;;;;;;10.90;3.60;;;7.20;99.90;;;;;;797135;179;27060;-79
2024/03/26 00:18:03;;;;;;;6.93;2.80;;;7.10;99.90;;;;;;796752;180;26536;-79
2024/03/26 00:20:32;;;;;;;7.30;3.37;;;7.20;98.80;;;;;;796643;178;27639;-79
2024/03/26 00:23:13;;;;;;;8.40;2.87;;;7.10;99.90;;;;;;799888;179;27034;-79
2024/03/26 00:26:00;;;;;;;10.20;3.30;;;7.10;99.20;;;;;;796386;180;27671;-79
2024/03/26 00:28:40;;;;;;;12.43;3.60;;;7.00;99.90;;;;;;796785;179;26509;-80
2024/03/26 00:31:14;;;;;;;9.20;4.30;;;7.00;99.90;;;;;;796075;180;27036;-77
2024/03/26 00:33:45;;;;;;;8.53;3.40;;;7.00;99.90;;;;;;795657;177;27036;-79
2024/03/26 00:36:34;;;;;;;5.30;2.77;;;7.00;99.90;;;;;;795634;180;26486;-79
2024/03/26 00:41:46;;;;;;;7.60;2.97;;;6.90;99.90;;;;;;796036;180;26441;-79
2024/03/26 00:44:19;;;;;;;5.90;3.20;;;6.90;99.90;;;;;;796676;180;26450;-79
2024/03/26 00:46:49;;;;;;;9.07;3.33;;;6.90;99.90;;;;;;796781;179;26467;-79
2024/03/26 00:49:24;;;;;;;7.93;3.23;;;6.90;99.90;;;;;;796916;178;26464;-82
2024/03/26 00:52:05;;;;;;;;;;;;;;;;;;;;;
2024/03/26 00:54:38;;;;;;;7.13;3.70;;;7.00;99.90;;;;;;800582;174;26625;-79
2024/03/26 00:57:14;;;;;;;6.77;2.83;;;6.90;99.90;;;;;;801581;176;26466;-79
2024/03/26 00:59:46;;;;;;;6.83;3.40;;;7.00;99.90;;;;;;799993;180;26615;-79
2024/03/26 01:02:22;;;;;;;7.40;3.13;;;7.00;99.90;;;;;;801112;176;26484;-78
2024/03/26 01:04:56;;;;;;;7.50;3.13;;;7.00;99.90;;;;;;799905;178;26491;-79
2024/03/26 01:07:48;;;;;;;7.77;3.50;;;6.90;99.90;;;;;;799807;179;26465;-79
2024/03/26 01:10:23;;;;;;;8.23;3.47;;;7.00;99.90;;;;;;799592;179;26438;-78
2024/03/26 01:12:59;;;;;;;9.60;4.20;;;7.00;99.90;;;;;;798763;178;26480;-80
2024/03/26 01:15:39;;;;;;;11.40;4.83;;;7.00;99.90;;;;;;800072;179;26544;-79
2024/03/26 01:18:21;;;;;;;6.93;3.30;;;7.00;99.90;;;;;;798400;179;26468;-79
2024/03/26 01:20:55;;;;;;;8.40;3.47;;;7.10;99.20;;;;;;798268;179;26450;-80
2024/03/26 01:23:28;;;;;;;8.40;3.53;;;7.10;99.70;;;;;;797617;179;26481;-80
2024/03/26 01:26:04;;;;;;;4.87;3.20;;;7.10;99.10;;;;;;797206;178;26457;-79
2024/03/26 01:28:40;;;;;;;7.20;3.20;;;7.10;98.40;;;;;;798805;179;27033;-80
2024/03/26 01:31:12;;;;;;;7.43;2.83;;;7.10;99.90;;;;;;799756;179;26478;-80
2024/03/26 01:33:55;;;;;;;7.83;3.17;;;7.10;99.90;;;;;;798777;179;26442;-80
2024/03/26 01:36:30;;;;;;;6.57;3.50;;;7.10;99.50;;;;;;797505;180;27083;-78
2024/03/26 01:39:07;;;;;;;5.33;2.87;;;7.00;99.60;;;;;;797239;180;26456;-79
2024/03/26 01:44:22;;;;;;;8.87;3.10;;;7.00;99.90;;;;;;790737;179;26440;-80
2024/03/26 01:47:04;;;;;;;5.83;3.20;;;7.00;99.90;;;;;;797607;178;26516;-79
2024/03/26 01:49:44;;;;;;;5.87;2.70;;;7.00;99.90;;;;;;797137;180;26462;-81
2024/03/26 01:52:18;;;;;;;7.67;3.20;;;7.00;99.90;;;;;;798069;177;26450;-80
2024/03/26 01:55:00;;;;;;;7.17;3.10;;;7.00;99.90;;;;;;797154;179;26468;-80
2024/03/26 01:57:50;;;;;;;7.60;3.13;;;7.00;99.90;;;;;;798257;179;26505;-80
2024/03/26 02:00:33;;;;;;;9.40;3.13;;;7.00;99.90;;;;;;798673;177;26451;-80
2024/03/26 02:09:00;;;;;;;;;;;;;;;;;;;;;
2024/03/26 02:11:38;;;;;;;11.53;4.33;;;7.00;99.90;;;;;;800965;179;26444;-79
2024/03/26 02:14:08;;;;;;;8.00;3.30;;;7.00;99.90;;;;;;798200;180;26435;-80
2024/03/26 02:16:58;;;;;;;7.23;3.30;;;7.10;99.90;;;;;;813056;167;26581;-80
2024/03/26 02:22:04;;;;;;;6.63;3.20;;;7.00;99.90;;;;;;804169;176;26417;-80
2024/03/26 02:24:44;;;;;;;8.83;3.60;;;7.00;99.90;;;;;;797262;179;26461;-80
2024/03/26 02:27:23;;;;;;;7.00;2.73;;;7.00;99.50;;;;;;804567;176;26516;-79
2024/03/26 02:29:57;;;;;;;5.00;3.10;;;7.00;99.70;;;;;;796966;179;26467;-79
2024/03/26 02:32:37;;;;;;;;;;;;;;;;;;;;;
2024/03/26 02:35:10;;;;;;;7.97;3.87;;;7.00;99.90;;;;;;815166;175;26459;-80
2024/03/26 02:37:42;;;;;;;6.10;3.33;;;6.90;99.90;;;;;;804646;176;26476;-80
2024/03/26 02:40:21;;;;;;;5.23;2.60;;;7.00;99.90;;;;;;810572;176;26527;-80
2024/03/26 02:42:50;;;;;;;5.77;3.20;;;7.00;99.90;;;;;;808270;176;26347;-80
2024/03/26 02:45:25;;;;;;;4.13;3.00;;;7.00;99.90;;;;;;805528;177;26578;-80
2024/03/26 02:48:04;;;;;;;6.30;2.90;;;7.00;99.90;;;;;;791671;179;27001;-79
2024/03/26 02:50:41;;;;;;;6.37;3.33;;;7.00;99.90;;;;;;804032;177;26402;-80
2024/03/26 02:53:13;;;;;;;7.93;3.20;;;7.00;99.80;;;;;;807753;174;26409;-80
2024/03/26 02:55:54;;;;;;;5.87;3.37;;;7.00;99.90;;;;;;788443;180;26527;-79
2024/03/26 02:58:26;;;;;;;5.97;3.20;;;7.00;99.90;;;;;;811179;176;26573;-79
2024/03/26 03:00:57;;;;;;;6.57;3.33;;;7.00;99.90;;;;;;795631;180;26546;-79
2024/03/26 03:03:38;;;;;;;7.47;3.43;;;7.00;99.90;;;;;;803363;177;26404;-80
2024/03/26 03:06:15;;;;;;;7.13;3.30;;;7.00;99.90;;;;;;806240;176;26745;-79
2024/03/26 03:08:46;;;;;;;8.20;3.50;;;7.10;99.90;;;;;;810255;176;26393;-79
2024/03/26 03:11:51;;;;;;;6.77;3.23;;;7.00;99.90;;;;;;809312;177;26399;-80
2024/03/26 03:14:27;;;;;;;7.17;3.10;;;7.00;99.90;;;;;;810716;175;26453;-80
2024/03/26 03:17:00;;;;;;;4.93;3.20;;;7.00;99.90;;;;;;811698;175;26443;-80
2024/03/26 03:19:34;;;;;;;7.73;3.30;;;7.00;99.90;;;;;;813634;176;26637;-79
2024/03/26 03:25:08;;;;;;;6.27;3.57;;;7.00;99.90;;;;;;810273;176;26389;-77
2024/03/26 03:27:42;;;;;;;7.57;3.53;;;7.00;99.90;;;;;;812269;176;26379;-79
2024/03/26 03:30:18;;;;;;;5.43;3.50;;;7.00;99.90;;;;;;811664;174;26473;-79
2024/03/26 03:32:52;;;;;;;8.97;3.50;;;7.00;99.90;;;;;;811121;176;26400;-79
2024/03/26 03:35:33;;;;;;;10.50;3.20;;;7.00;99.90;;;;;;787758;179;26639;-78
2024/03/26 03:38:21;;;;;;;5.93;3.50;;;7.00;99.90;;;;;;807137;177;26449;-79
2024/03/26 03:40:56;;;;;;;5.27;2.90;;;7.10;99.90;;;;;;807195;177;26535;-79
2024/03/26 03:43:29;;;;;;;8.23;3.40;;;7.10;99.90;;;;;;806274;177;26710;-78
2024/03/26 03:46:12;;;;;;;4.13;2.80;;;7.00;99.90;;;;;;807373;177;26589;-78
2024/03/26 03:48:45;;;;;;;7.70;3.03;;;7.00;99.90;;;;;;808016;177;26384;-79
2024/03/26 03:51:18;;;;;;;3.70;2.53;;;7.00;99.90;;;;;;806817;175;28093;-77
2024/03/26 03:53:49;;;;;;;4.53;2.80;;;7.00;99.90;;;;;;807430;176;26496;-79
2024/03/26 03:56:29;;;;;;;4.80;2.90;;;7.10;99.90;;;;;;806502;177;26672;-80
2024/03/26 03:59:15;;;;;;;7.70;3.30;;;7.10;99.90;;;;;;807924;176;26953;-79
2024/03/26 04:01:50;;;;;;;4.27;2.67;;;7.10;99.90;;;;;;806929;175;26529;-79
2024/03/26 04:04:30;;;;;;;5.90;2.83;;;7.20;99.90;;;;;;811217;176;26365;-80
2024/03/26 04:07:03;;;;;;;5.53;2.60;;;7.20;99.80;;;;;;806811;177;26474;-79
2024/03/26 04:09:40;;;;;;;6.37;2.90;;;7.10;99.70;;;;;;807941;177;26411;-79
2024/03/26 04:12:22;;;;;;;5.97;2.63;;;7.20;99.60;;;;;;811820;175;26435;-79
2024/03/26 04:17:35;;;;;;;6.00;3.30;;;7.20;99.50;;;;;;749165;184;26503;-80
2024/03/26 04:20:11;;;;;;;4.23;3.20;;;7.20;99.60;;;;;;797484;178;26432;-79
2024/03/26 04:22:44;;;;;;;5.07;3.13;;;7.20;99.70;;;;;;802405;178;26422;-78
2024/03/26 04:25:27;;;;;;;8.97;3.93;;;7.30;99.80;;;;;;776265;180;26510;-79
2024/03/26 04:28:04;;;;;;;7.20;3.00;;;7.30;99.90;;;;;;776183;182;27024;-80
2024/03/26 04:30:36;;;;;;;3.57;2.60;;;7.30;99.60;;;;;;802345;179;27041;-79
2024/03/26 04:33:06;;;;;;;4.37;2.90;;;7.40;99.90;;;;;;802656;178;26428;-79
2024/03/26 04:35:44;;;;;;;7.37;3.37;;;7.30;99.90;;;;;;802219;176;26600;-79
2024/03/26 04:38:18;;;;;;;8.80;3.43;;;7.30;99.90;;;;;;798416;179;26448;-80
2024/03/26 04:40:49;;;;;;;6.97;3.07;;;7.30;99.60;;;;;;799641;179;26459;-80
2024/03/26 04:43:28;;;;;;;14.07;3.90;;;7.30;99.90;;;;;;799834;178;26487;-80
2024/03/26 04:45:59;;;;;;;6.57;3.00;;;7.20;99.90;;;;;;794196;177;26616;-78
2024/03/26 04:48:31;;;;;;;4.70;2.90;;;7.10;99.90;;;;;;800638;179;26616;-78
2024/03/26 04:51:03;;;;;;;7.60;2.80;;;7.10;99.90;;;;;;799261;179;26443;-79
2024/03/26 04:53:33;;;;;;;5.43;2.93;;;7.10;99.90;;;;;;799918;179;26622;-80
2024/03/26 04:58:47;;;;;;;7.33;3.17;;;7.10;99.90;;;;;;799984;178;26495;-79
2024/03/26 05:01:27;;;;;;;5.63;2.90;;;7.00;99.90;;;;;;800033;178;26587;-79
2024/03/26 05:04:02;;;;;;;4.50;2.87;;;7.00;99.90;;;;;;788630;179;26446;-79
2024/03/26 05:06:33;;;;;;;4.13;2.60;;;7.00;99.90;;;;;;798926;177;26526;-80
2024/03/26 05:09:19;;;;;;;5.93;3.30;;;7.00;99.90;;;;;;799892;179;26599;-79
2024/03/26 05:11:55;;;;;;;6.30;3.10;;;7.00;99.90;;;;;;799113;179;26510;-79
2024/03/26 05:17:17;;;;;;;8.07;3.27;;;6.90;99.90;;;;;;800358;176;26454;-80
2024/03/26 05:22:53;;;;;;;5.43;3.43;;;7.00;99.90;;;;;;801961;179;26426;-80
2024/03/26 05:28:11;;;;;;;4.30;3.10;;;7.00;99.90;;;;;;799597;179;26985;-79
2024/03/26 05:30:46;;;;;;;6.50;3.07;;;7.00;99.90;;;;;;799351;179;26419;-80
2024/03/26 05:33:23;;;;;;;8.60;3.70;;;7.00;99.90;;;;;;793349;180;26438;-81
2024/03/26 05:35:54;;;;;;;5.90;3.33;;;7.00;99.90;;;;;;800939;176;26474;-80
2024/03/26 05:38:56;;;;;;;5.73;3.40;;;7.00;99.90;;;;;;790841;179;26597;-80
2024/03/26 05:41:31;;;;;;;5.97;3.23;;;6.90;99.90;;;;;;801444;178;26462;-80
2024/03/26 05:44:35;;;;;;;7.50;3.57;;;6.90;99.90;;;;;;799148;179;26475;-79
2024/03/26 05:46:55;;;;;;;4.17;3.37;;;7.00;99.90;;;;;;797582;176;26607;-80
2024/03/26 05:49:34;;;;;;;4.77;3.30;;;7.00;99.90;;;;;;801669;178;26436;-80
2024/03/26 05:52:10;;;;;;;5.70;3.30;;;7.10;99.90;;;;;;799050;179;26460;-80
2024/03/26 05:54:54;;;;;;;4.80;3.23;;;7.10;99.90;;;;;;800399;178;26576;-79
2024/03/26 05:57:31;;;;;;;5.67;3.50;;;7.20;99.90;;;;;;789097;178;27007;-80
2024/03/26 06:02:56;;;;;;;5.50;3.13;;;7.10;99.90;;;;;;802030;179;27673;-78
2024/03/26 06:05:26;;;;;;;7.27;3.43;;;7.20;99.90;;;;;;802077;176;26446;-79
2024/03/26 06:08:01;;;;;;;7.27;3.33;;;7.30;99.90;;;;;;800123;178;26564;-79
2024/03/26 06:10:33;;;;;;;5.20;3.33;;;7.30;99.90;;;;;;799046;178;26424;-81
2024/03/26 06:13:10;;;;;;;4.03;3.10;;;7.40;99.90;;;;;;799882;179;26428;-78
2024/03/26 06:15:43;;;;;;;6.57;3.40;;;7.40;99.90;;;;;;799188;176;26474;-80
2024/03/26 06:18:20;;;;;;;6.40;3.20;;;7.50;99.90;;;;;;794963;178;26448;-79
2024/03/26 06:20:48;;;;;;;9.53;3.57;;;7.50;99.90;;;;;;801461;176;26463;-79
2024/03/26 06:23:21;;;;;;;8.83;3.77;;;7.50;99.70;;;;;;802880;177;26428;-80
2024/03/26 06:25:53;;;;;;;7.67;3.63;;;7.60;99.00;;;;;;786641;179;26629;-80
2024/03/26 06:28:28;;;;;;;4.13;3.40;;;7.60;99.90;;;;;;799820;178;26455;-79
2024/03/26 06:31:00;;;;;;;5.10;3.33;;;7.70;99.70;;;;;;795172;180;26588;-78
2024/03/26 06:33:37;;;;;;;6.20;3.37;;;7.70;99.20;;;;;;799997;179;26541;-79
2024/03/26 06:36:15;;;;;;;6.63;3.53;;;7.70;99.80;;;;;;801018;176;26426;-79
2024/03/26 06:38:46;;;;;;;5.83;3.27;;;7.70;99.50;;;;;;784946;180;26481;-79
2024/03/26 06:41:23;;;;;;;9.13;3.27;;;7.80;98.80;;;;;;800350;179;26433;-80
2024/03/26 06:46:34;;;;;;;7.53;3.93;;;7.80;99.20;;;;;;801210;176;26459;-79
2024/03/26 06:49:06;;;;;;;5.40;3.23;;;7.90;99.90;;;;;;798907;178;26432;-80
2024/03/26 06:51:51;;;;;;;5.50;3.40;;;7.90;99.10;;;;;;799460;178;26456;-79
2024/03/26 06:54:43;;;;;;;8.53;3.60;;;7.90;98.70;;;;;;799100;178;26472;-79
2024/03/26 06:57:20;;;;;;;6.20;3.23;;;7.90;99.40;;;;;;802860;175;26469;-79
2024/03/26 06:59:58;;;;;;;12.30;4.60;;;7.90;99.40;;;;;;790661;179;26449;-79
2024/03/26 07:02:35;;;;;;;6.30;3.70;;;8.00;98.50;;;;;;798276;179;26429;-78
2024/03/26 07:05:22;;;;;;;9.03;4.00;;;8.10;98.50;;;;;;800677;177;26651;-79
2024/03/26 07:07:53;;;;;;;5.20;3.50;;;8.10;99.90;;;;;;799035;178;26508;-80
2024/03/26 07:10:41;;;;;;;10.47;3.57;;;8.20;99.30;;;;;;797755;179;26473;-81
2024/03/26 07:13:27;;;;;;;7.40;3.80;;;8.20;99.30;;;;;;794521;180;26515;-79
2024/03/26 07:21:48;;;;;;;9.73;4.00;;;8.30;98.00;;;;;;798297;177;26633;-80
2024/03/26 07:24:42;;;;;;;6.83;3.20;;;8.40;98.40;;;;;;798875;178;26432;-80
2024/03/26 07:27:38;;;;;;;;;;;;;;;;;;;;;
2024/03/26 07:33:32;;;;;;;9.67;4.10;;;8.50;97.90;;;;;;765014;184;26505;-78
2024/03/26 07:36:53;;;;;;;;;;;;;;;;;;;;;
2024/03/26 07:39:33;;;;;;;9.90;3.37;;;8.60;97.90;;;;;;799955;178;26425;-78
2024/03/26 07:42:27;;;;;;;8.03;3.13;;;8.60;96.60;;;;;;796713;179;26452;-79
2024/03/26 07:45:02;;;;;;;13.07;3.67;;;8.70;97.40;;;;;;791925;180;26472;-77
2024/03/26 07:48:02;;;;;;;9.23;3.40;;;8.70;97.60;;;;;;800231;178;27055;-78
2024/03/26 07:50:38;;;;;;;7.10;3.63;;;8.70;96.10;;;;;;802465;177;26591;-79
2024/03/26 07:53:51;;;;;;;6.70;3.20;;;8.70;97.20;;;;;;794877;180;26496;-77
2024/03/26 08:01:41;;;;;;;10.00;3.73;;;8.90;96.10;;;;;;786556;180;26629;-76
2024/03/26 08:04:28;;;;;;;7.63;3.30;;;9.00;96.00;;;;;;796643;180;27016;-79
2024/03/26 08:10:13;;;;;;;8.07;3.50;;;9.20;95.80;;;;;;789051;179;26442;-78
2024/03/26 08:12:51;;;;;;;7.90;3.97;;;9.30;95.80;;;;;;789630;180;26454;-79
2024/03/26 08:15:30;;;;;;;10.27;3.70;;;9.30;97.30;;;;;;799571;177;26556;-80
2024/03/26 08:21:23;;;;;;;;;;;;;;;;;;;;;
2024/03/26 08:24:04;;;;;;;6.40;3.73;;;9.40;94.80;;;;;;785651;180;26485;-79
2024/03/26 08:29:39;;;;;;;7.80;3.50;;;9.30;95.40;;;;;;797705;179;26577;-77
2024/03/26 08:32:30;;;;;;;5.13;3.70;;;9.20;95.60;;;;;;777884;181;27074;-80
2024/03/26 08:35:19;;;;;;;8.47;3.30;;;9.30;95.30;;;;;;781633;183;26474;-77
2024/03/26 08:38:02;;;;;;;5.93;3.50;;;9.30;95.90;;;;;;778340;183;26486;-79
2024/03/26 08:40:37;;;;;;;9.93;3.80;;;9.30;94.90;;;;;;767293;182;26736;-79
2024/03/26 08:43:15;;;;;;;6.80;3.60;;;9.40;95.20;;;;;;798887;180;26663;-79
2024/03/26 08:45:42;;;;;;;5.93;3.50;;;9.50;95.40;;;;;;775703;184;26640;-79
2024/03/26 08:48:09;;;;;;;7.00;3.67;;;9.50;95.60;;;;;;783260;181;26444;-80
2024/03/26 08:50:35;;;;;;;6.77;3.80;;;9.60;95.20;;;;;;787987;181;27016;-80
2024/03/26 08:53:03;;;;;;;10.47;4.17;;;9.70;95.10;;;;;;794823;180;26468;-79
2024/03/26 08:55:28;;;;;;;6.53;3.77;;;9.60;95.50;;;;;;794224;177;26479;-79
2024/03/26 08:57:55;;;;;;;5.70;3.50;;;9.70;94.80;;;;;;793767;177;26614;-78
2024/03/26 09:00:22;;;;;;;7.60;3.37;;;9.70;97.10;;;;;;794594;180;26584;-79
2024/03/26 09:02:49;;;;;;;7.97;3.50;;;9.70;95.20;;;;;;775969;183;27063;-78
2024/03/26 09:05:16;;;;;;;8.53;3.83;;;9.70;95.50;;;;;;792585;181;26468;-80
2024/03/26 09:07:42;;;;;;;9.17;3.60;;;9.80;97.50;;;;;;772005;183;26633;-80
2024/03/26 09:10:09;;;;;;;5.00;3.60;;;9.80;96.30;;;;;;793233;180;26446;-80
2024/03/26 09:12:37;;;;;;;9.63;3.80;;;9.70;96.30;;;;;;793059;178;28071;-78
2024/03/26 09:15:03;;;;;;;8.60;3.73;;;9.80;98.00;;;;;;781349;182;26489;-78
2024/03/26 09:17:30;;;;;;;5.63;3.70;;;9.90;96.70;;;;;;797048;179;26454;-80
2024/03/26 09:19:56;;;;;;;7.40;3.40;;;9.70;97.10;;;;;;793707;180;26468;-79
2024/03/26 09:22:23;;;;;;;7.70;3.60;;;9.90;96.70;;;;;;791247;180;26977;-80
2024/03/26 09:24:49;;;;;;;4.73;3.50;;;9.90;96.50;;;;;;793831;179;26465;-79
2024/03/26 09:27:16;;;;;;;9.63;4.33;;;10.00;95.80;;;;;;792409;179;27045;-78
2024/03/26 09:29:43;;;;;;;8.43;4.10;;;10.10;95.10;;;;;;792179;179;26464;-80
2024/03/26 09:32:09;;;;;;;7.20;4.17;;;10.30;94.40;;;;;;789235;180;26468;-80
2024/03/26 09:34:36;;;;;;;7.53;4.13;;;10.30;94.70;;;;;;789713;181;26476;-80
2024/03/26 09:37:03;;;;;;;6.07;3.77;;;10.10;94.60;;;;;;795496;179;27033;-80
2024/03/26 09:39:29;;;;;;;6.87;3.63;;;10.20;95.30;;;;;;790800;180;26473;-78
2024/03/26 09:41:58;;;;;;;11.27;3.80;;;10.40;95.50;;;;;;787817;181;26447;-79
2024/03/26 09:44:24;;;;;;;6.33;4.13;;;10.50;95.40;;;;;;792329;178;26463;-80
2024/03/26 09:46:51;;;;;;;7.50;4.43;;;10.60;94.30;;;;;;794542;180;26996;-79
2024/03/26 09:49:17;;;;;;;6.90;4.33;;;10.60;95.10;;;;;;788411;181;26613;-80
2024/03/26 09:51:44;;;;;;;5.63;3.90;;;10.50;95.90;;;;;;789581;180;26460;-78
2024/03/26 09:54:11;;;;;;;7.43;3.70;;;10.50;95.10;;;;;;784255;181;26451;-79
2024/03/26 09:56:37;;;;;;;5.90;3.60;;;10.60;94.70;;;;;;790375;181;26480;-79
2024/03/26 09:59:04;;;;;;;7.27;4.50;;;10.30;94.80;;;;;;786761;181;26456;-79
2024/03/26 10:01:30;;;;;;;9.23;3.73;;;10.50;96.10;;;;;;788870;180;26485;-79
2024/03/26 10:03:57;;;;;;;5.10;3.50;;;10.70;95.90;;;;;;794784;181;26487;-79
2024/03/26 10:06:25;;;;;;;9.47;4.80;;;10.80;95.80;;;;;;776443;180;26512;-78
2024/03/26 10:08:51;;;;;;;5.13;3.43;;;10.70;95.10;;;;;;792561;180;26467;-80
2024/03/26 10:11:18;;;;;;;11.10;4.50;;;10.90;94.50;;;;;;770733;183;26487;-80
2024/03/26 10:13:44;;;;;;;5.40;3.10;;;11.10;95.20;;;;;;785562;181;26464;-79
2024/03/26 10:16:11;;;;;;;7.60;4.07;;;11.10;93.60;;;;;;790087;180;27054;-79
2024/03/26 10:18:37;;;;;;;7.83;3.63;;;11.10;94.40;;;;;;789028;180;26467;-79
2024/03/26 10:21:06;;;;;;;7.53;3.70;;;11.30;93.60;;;;;;774204;179;27077;-79
2024/03/26 10:23:32;;;;;;;7.93;4.20;;;11.20;92.80;;;;;;790203;181;26480;-79
2024/03/26 10:25:59;;;;;;;7.13;4.57;;;11.30;94.50;;;;;;789917;180;26480;-80
2024/03/26 10:28:26;;;;;;;9.43;3.83;;;11.20;93.10;;;;;;796840;179;26451;-78
2024/03/26 10:30:52;;;;;;;8.47;4.27;;;11.30;94.70;;;;;;792578;180;26469;-78
2024/03/26 10:33:19;;;;;;;7.27;3.50;;;11.40;94.20;;;;;;793206;180;26514;-81
2024/03/26 10:35:47;;;;;;;8.90;3.57;;;11.30;94.20;;;;;;791925;179;27092;-81
2024/03/26 10:38:13;;;;;;;10.53;3.97;;;11.30;92.20;;;;;;790150;179;26480;-81
2024/03/26 10:40:40;;;;;;;6.57;3.47;;;11.20;93.00;;;;;;790252;179;26480;-81
2024/03/26 10:43:07;;;;;;;9.63;3.93;;;11.20;93.60;;;;;;794642;180;26997;-80
2024/03/26 10:45:33;;;;;;;8.73;3.93;;;11.30;93.90;;;;;;791130;180;26500;-81
2024/03/26 10:48:00;;;;;;;5.30;3.60;;;11.20;95.10;;;;;;777627;183;26480;-81
2024/03/26 10:50:27;;;;;;;8.10;4.07;;;11.20;93.80;;;;;;783088;180;26467;-81
2024/03/26 10:52:53;;;;;;;9.27;4.47;;;11.30;95.00;;;;;;790506;180;27071;-79
2024/03/26 10:55:20;;;;;;;8.40;4.17;;;11.30;94.30;;;;;;788638;181;26507;-78
2024/03/26 10:57:48;;;;;;;11.50;4.20;;;11.60;93.40;;;;;;791683;180;26501;-79
2024/03/26 11:00:14;;;;;;;7.83;3.60;;;12.00;92.40;;;;;;791026;177;26461;-80
2024/03/26 11:02:41;;;;;;;6.03;3.70;;;12.30;91.10;;;;;;791054;180;26479;-79
2024/03/26 11:05:08;;;;;;;7.23;3.63;;;12.40;90.90;;;;;;780159;184;26495;-80
2024/03/26 11:07:36;;;;;;;7.43;3.87;;;12.60;89.50;;;;;;790677;181;28063;-79
2024/03/26 11:10:17;;;;;;;8.33;3.87;;;12.80;87.30;;;;;;795363;180;26438;-80
2024/03/26 11:12:44;;;;;;;6.63;3.53;;;13.10;92.30;;;;;;792721;181;26457;-79
2024/03/26 11:15:22;;;;;;;7.13;3.87;;;13.70;88.90;;;;;;793202;180;26462;-78
2024/03/26 11:17:51;;;;;;;6.93;3.40;;;13.60;80.40;;;;;;796305;180;26451;-80
2024/03/26 11:20:18;;;;;;;8.33;3.90;;;14.00;79.70;;;;;;798032;180;26452;-80
2024/03/26 11:22:44;;;;;;;9.23;3.87;;;14.80;74.70;;;;;;775746;183;26478;-79
2024/03/26 11:25:11;;;;;;;8.47;3.30;;;15.10;69.40;;;;;;791612;180;26477;-79
2024/03/26 11:27:37;;;;;;;6.37;3.73;;;15.20;72.90;;;;;;791262;181;26599;-79
2024/03/26 11:30:10;;;;;;;9.43;3.87;;;15.20;67.60;;;;;;808412;169;26464;-80
2024/03/26 11:32:45;;;;;;;8.03;3.40;;;14.80;70.50;;;;;;817408;173;26466;-79
2024/03/26 11:35:22;;;;;;;8.70;3.87;;;14.80;73.00;;;;;;822502;173;26445;-79
2024/03/26 11:37:57;;;;;;;6.27;3.47;;;14.60;70.30;;;;;;816266;175;27047;-79
2024/03/26 11:40:28;;;;;;;7.30;3.47;;;14.50;78.50;;;;;;813266;176;26417;-79
2024/03/26 11:43:02;;;;;;;11.03;3.43;;;14.40;71.10;;;;;;826463;173;26427;-79
2024/03/26 11:45:35;;;;;;;5.83;3.50;;;14.10;78.10;;;;;;818040;173;26442;-79
2024/03/26 11:48:07;;;;;;;8.70;3.97;;;13.90;80.20;;;;;;809613;176;26428;-78
2024/03/26 11:53:23;;;;;;;5.57;3.37;;;13.80;78.30;;;;;;809290;176;26636;-79
2024/03/26 11:55:54;;;;;;;9.70;3.80;;;13.90;84.80;;;;;;811407;177;26432;-79
2024/03/26 11:58:28;;;;;;;10.50;3.97;;;14.30;83.50;;;;;;817196;174;26418;-79
2024/03/26 12:01:10;;;;;;;;;;;;;;;;;;;;;
2024/03/26 12:03:39;;;;;;;10.37;4.13;;;14.50;71.80;;;;;;823654;173;26429;-77
2024/03/26 12:06:14;;;;;;;9.07;3.33;;;14.70;70.90;;;;;;804360;177;26440;-79
2024/03/26 12:11:22;;;;;;;6.20;3.40;;;15.00;73.20;;;;;;809712;176;26421;-79
2024/03/26 12:13:54;;;;;;;9.07;3.77;;;15.20;76.00;;;;;;809624;177;26449;-78
2024/03/26 12:16:27;;;;;;;7.67;3.43;;;15.50;69.80;;;;;;809801;177;26446;-79
2024/03/26 12:18:58;;;;;;;8.93;3.40;;;15.40;70.00;;;;;;809405;177;26471;-78
2024/03/26 12:21:31;;;;;;;8.40;3.87;;;15.30;69.10;;;;;;808218;176;26440;-80
2024/03/26 12:24:04;;;;;;;6.83;3.20;;;15.10;73.10;;;;;;810194;176;26493;-78
2024/03/26 12:26:40;;;;;;;7.23;3.57;;;15.40;70.70;;;;;;807416;174;26464;-78
2024/03/26 12:29:14;;;;;;;10.20;3.90;;;15.20;72.80;;;;;;811720;176;26452;-79
2024/03/26 12:31:43;;;;;;;8.63;3.53;;;15.00;70.00;;;;;;808036;178;26456;-78
2024/03/26 12:34:19;;;;;;;9.07;3.57;;;15.10;70.20;;;;;;809055;175;26493;-78
2024/03/26 12:36:46;;;;;;;7.10;3.33;;;14.80;71.90;;;;;;808084;177;28944;-79
2024/03/26 12:39:17;;;;;;;11.17;3.80;;;14.90;82.20;;;;;;808011;174;26535;-79
2024/03/26 12:41:46;;;;;;;8.07;3.37;;;14.80;76.60;;;;;;812525;176;26666;-79
2024/03/26 12:44:18;;;;;;;7.47;3.20;;;14.80;81.60;;;;;;821202;174;26391;-79
2024/03/26 12:49:30;;;;;;;7.60;3.47;;;14.60;82.80;;;;;;802619;176;26467;-80
2024/03/26 12:52:02;;;;;;;8.57;3.77;;;14.40;80.00;;;;;;813814;175;26991;-80
2024/03/26 12:54:31;;;;;;;6.23;3.10;;;14.50;84.30;;;;;;823268;173;26397;-80
2024/03/26 12:57:00;;;;;;;11.37;4.03;;;14.70;85.00;;;;;;811921;176;26453;-79
2024/03/26 12:59:29;;;;;;;6.80;3.73;;;15.10;79.40;;;;;;823656;173;26431;-80
2024/03/26 13:02:01;;;;;;;7.23;3.60;;;15.50;73.80;;;;;;805454;176;26437;-80
2024/03/26 13:04:31;;;;;;;6.83;3.33;;;15.80;72.90;;;;;;821073;174;26455;-80
2024/03/26 13:06:59;;;;;;;8.67;3.50;;;16.10;67.70;;;;;;827770;173;26403;-78
2024/03/26 13:09:29;;;;;;;8.40;3.30;;;16.10;65.70;;;;;;827855;173;26429;-81
2024/03/26 13:11:59;;;;;;;11.50;3.40;;;16.30;69.10;;;;;;824266;173;26410;-79
2024/03/26 13:14:29;;;;;;;11.13;3.13;;;16.60;70.40;;;;;;825392;173;26417;-80
2024/03/26 13:16:58;;;;;;;9.17;3.10;;;16.80;61.00;;;;;;828574;170;26452;-81
2024/03/26 13:19:36;;;;;;;6.77;3.63;;;17.10;59.70;;;;;;826665;173;26500;-81
2024/03/26 13:22:06;;;;;;;8.83;3.20;;;18.30;57.20;;;;;;823499;173;26458;-80
2024/03/26 13:24:35;;;;;;;7.90;3.33;;;19.30;53.10;;;;;;820624;174;26478;-80
2024/03/26 13:27:05;;;;;;;9.03;3.07;;;18.90;50.60;;;;;;824154;174;26406;-80
2024/03/26 13:29:35;;;;;;;8.07;3.40;;;18.90;51.10;;;;;;826480;174;26497;-80
2024/03/26 13:32:03;;;;;;;8.50;3.43;;;19.00;51.50;;;;;;811989;177;26485;-79
2024/03/26 13:34:30;;;;;;;6.37;2.63;;;19.80;51.10;;;;;;822061;174;26410;-79
2024/03/26 13:36:59;;;;;;;6.47;3.30;;;21.60;44.70;;;;;;824435;174;26452;-80
2024/03/26 13:39:32;;;;;;;7.57;3.37;;;21.30;41.70;;;;;;823497;174;26444;-80
2024/03/26 13:42:06;;;;;;;9.97;3.37;;;21.00;44.20;;;;;;809017;177;26431;-80
2024/03/26 13:44:51;;;;;;;8.70;3.60;;;21.00;43.40;;;;;;828199;173;26396;-81
2024/03/26 13:47:21;;;;;;;14.20;4.07;;;20.60;44.90;;;;;;826513;174;26406;-79
2024/03/26 13:50:05;;;;;;;11.10;3.80;;;19.30;43.10;;;;;;809459;177;27025;-78
2024/03/26 13:52:34;;;;;;;9.20;3.20;;;19.70;45.70;;;;;;802752;174;26697;-81
2024/03/26 13:55:03;;;;;;;8.07;3.20;;;21.10;44.90;;;;;;818469;174;26419;-80
2024/03/26 13:57:37;;;;;;;7.63;3.07;;;20.40;42.00;;;;;;810282;174;26429;-79
2024/03/26 14:00:13;;;;;;;6.67;3.23;;;21.00;44.00;;;;;;814838;173;26449;-80
2024/03/26 14:02:52;;;;;;;8.47;3.43;;;21.90;41.40;;;;;;811628;176;26631;-79
2024/03/26 14:05:19;;;;;;;7.10;3.53;;;22.00;40.60;;;;;;825513;173;26434;-79
2024/03/26 14:07:50;;;;;;;8.17;3.50;;;21.60;42.10;;;;;;824775;173;26392;-80
2024/03/26 14:10:25;;;;;;;7.23;3.47;;;20.70;41.70;;;;;;825693;173;26431;-80
2024/03/26 14:12:52;;;;;;;8.40;3.77;;;20.50;43.50;;;;;;827417;173;26426;-80
2024/03/26 14:15:27;;;;;;;8.40;3.37;;;20.90;46.10;;;;;;812577;176;26486;-80
2024/03/26 14:17:57;;;;;;;6.70;3.37;;;20.60;45.50;;;;;;819399;174;26426;-80
2024/03/26 14:20:42;;;;;;;;;;;;;;;;;;;;;
2024/03/26 14:28:44;;;;;;;9.47;3.63;;;19.00;46.80;;;;;;791767;173;26406;-79
2024/03/26 14:31:12;;;;;;;11.13;3.10;;;19.50;46.50;;;;;;811014;177;26431;-79
2024/03/26 14:33:53;;;;;;;10.03;3.30;;;19.90;45.40;;;;;;811584;176;26568;-82
2024/03/26 14:36:27;;;;;;;4.47;3.00;;;20.20;43.90;;;;;;812495;176;26435;-81
2024/03/26 14:38:57;;;;;;;9.07;3.60;;;21.10;43.00;;;;;;814948;174;26408;-81
2024/03/26 14:41:33;;;;;;;8.33;2.73;;;20.70;41.90;;;;;;819473;173;26436;-81
2024/03/26 14:44:26;;;;;;;7.50;3.03;;;20.80;43.30;;;;;;807612;176;26437;-81
2024/03/26 14:47:13;;;;;;;6.00;2.70;;;21.30;43.60;;;;;;811070;177;26491;-81
2024/03/26 14:49:46;;;;;;;7.27;2.80;;;21.20;41.80;;;;;;810852;176;26456;-81